createdAt,value
2022-08-03T00:01:15.686Z,57.58
2022-08-03T00:03:45.216Z,57.39
2022-08-03T00:06:25.178Z,57.24
2022-08-03T00:09:05.632Z,57.08
2022-08-03T00:11:46.310Z,56.93
2022-08-03T00:14:20.716Z,56.75
2022-08-03T00:16:47.854Z,56.88
2022-08-03T00:19:25.198Z,57.11
2022-08-03T00:21:53.267Z,57.19
2022-08-03T00:24:28.146Z,57.24
2022-08-03T00:26:58.520Z,57.22
2022-08-03T00:29:28.438Z,57.35
2022-08-03T00:31:59.474Z,57.29
2022-08-03T00:34:57.203Z,57.55
2022-08-03T00:37:20.885Z,57.58
2022-08-03T00:39:53.855Z,57.57
2022-08-03T00:42:29.726Z,57.91
2022-08-03T00:44:56.626Z,58.04
2022-08-03T00:47:25.305Z,58.21
2022-08-03T00:49:54.715Z,58.29
2022-08-03T00:52:21.951Z,58.35
2022-08-03T00:54:51.045Z,58.47
2022-08-03T00:57:27.210Z,58.27
2022-08-03T00:59:54.573Z,58.65
2022-08-03T01:02:22.663Z,58.65
2022-08-03T01:04:51.706Z,58.81
2022-08-03T01:07:36.153Z,58.81
2022-08-03T01:10:20.414Z,59.17
2022-08-03T01:13:59.155Z,59.06
2022-08-03T01:16:21.641Z,59.20
2022-08-03T01:19:07.071Z,59.02
2022-08-03T01:21:54.879Z,59.42
2022-08-03T01:24:56.535Z,59.53
2022-08-03T01:27:33.784Z,59.84
2022-08-03T01:30:12.065Z,59.61
2022-08-03T01:33:13.066Z,59.90
2022-08-03T01:35:50.525Z,59.87
2022-08-03T01:38:43.652Z,60.06
2022-08-03T01:41:22.594Z,60.08
2022-08-03T01:44:27.852Z,60.01
2022-08-03T01:47:14.304Z,60.23
2022-08-03T01:49:49.610Z,60.60
2022-08-03T01:52:35.396Z,60.73
2022-08-03T01:55:17.612Z,60.66
2022-08-03T01:58:05.453Z,60.76
2022-08-03T02:00:40.989Z,61.02
2022-08-03T02:03:13.036Z,61.13
2022-08-03T02:05:42.909Z,60.91
2022-08-03T02:08:12.901Z,61.27
2022-08-03T02:10:42.910Z,61.44
2022-08-03T02:13:14.810Z,61.54
2022-08-03T02:15:42.941Z,61.44
2022-08-03T02:18:15.368Z,61.33
2022-08-03T02:20:48.265Z,61.56
2022-08-03T02:23:18.895Z,61.44
2022-08-03T02:25:50.587Z,61.76
2022-08-03T02:28:26.087Z,61.82
2022-08-03T02:30:59.580Z,61.83
2022-08-03T02:33:33.352Z,61.90
2022-08-03T02:36:01.901Z,61.75
2022-08-03T02:38:38.179Z,61.96
2022-08-03T02:41:08.556Z,62.26
2022-08-03T02:44:06.655Z,62.08
2022-08-03T02:46:33.932Z,62.20
2022-08-03T02:49:41.185Z,62.64
2022-08-03T02:51:57.433Z,62.52
2022-08-03T02:54:26.443Z,62.72
2022-08-03T02:56:57.133Z,63.04
2022-08-03T02:59:30.604Z,62.98
2022-08-03T03:01:59.712Z,63.47
2022-08-03T03:04:32.962Z,63.44
2022-08-03T03:07:04.401Z,63.40
2022-08-03T03:09:41.635Z,63.79
2022-08-03T03:12:13.432Z,64.07
2022-08-03T03:14:40.669Z,64.51
2022-08-03T03:17:14.719Z,64.89
2022-08-03T03:19:44.811Z,65.55
2022-08-03T03:22:23.382Z,65.66
2022-08-03T03:25:04.092Z,65.85
2022-08-03T03:27:32.677Z,66.40
2022-08-03T03:30:01.492Z,66.60
2022-08-03T03:32:33.136Z,67.23
2022-08-03T03:35:17.670Z,67.22
2022-08-03T03:37:45.340Z,67.51
2022-08-03T03:40:14.017Z,67.85
2022-08-03T03:42:44.175Z,68.24
2022-08-03T03:45:24.398Z,68.27
2022-08-03T03:47:59.441Z,68.57
2022-08-03T03:50:46.224Z,68.56
2022-08-03T03:53:31.832Z,68.49
2022-08-03T03:56:05.694Z,68.34
2022-08-03T03:58:38.190Z,68.29
2022-08-03T04:01:06.263Z,68.34
2022-08-03T04:03:36.087Z,68.30
2022-08-03T04:06:32.471Z,68.40
2022-08-03T04:09:19.918Z,68.30
2022-08-03T04:11:58.873Z,68.48
2022-08-03T04:14:42.541Z,68.67
2022-08-03T04:17:26.692Z,68.76
2022-08-03T04:20:10.323Z,69.01
2022-08-03T04:23:00.409Z,69.08
2022-08-03T04:25:34.942Z,68.91
2022-08-03T04:28:20.984Z,69.08
2022-08-03T04:30:57.003Z,68.89
2022-08-03T04:33:32.642Z,69.01
2022-08-03T04:36:04.145Z,69.19
2022-08-03T04:38:38.608Z,69.05
2022-08-03T04:41:09.934Z,68.77
2022-08-03T04:43:41.394Z,68.51
2022-08-03T04:46:22.553Z,68.28
2022-08-03T04:48:54.418Z,68.00
2022-08-03T04:51:24.978Z,67.68
2022-08-03T04:53:52.226Z,67.77
2022-08-03T04:56:20.193Z,67.81
2022-08-03T04:58:59.376Z,67.51
2022-08-03T05:01:27.830Z,67.45
2022-08-03T05:03:57.145Z,67.28
2022-08-03T05:06:37.451Z,66.81
2022-08-03T05:09:45.106Z,66.61
2022-08-03T05:12:05.680Z,66.11
2022-08-03T05:14:35.777Z,65.43
2022-08-03T05:17:03.518Z,65.22
2022-08-03T05:19:39.448Z,64.71
2022-08-03T05:23:09.254Z,64.19
2022-08-03T05:26:23.142Z,63.57
2022-08-03T05:29:32.372Z,63.05
2022-08-03T05:32:24.132Z,62.51
2022-08-03T05:35:57.955Z,61.86
2022-08-03T05:38:37.436Z,60.99
2022-08-03T05:42:02.000Z,59.96
2022-08-03T05:44:52.158Z,58.64
2022-08-03T05:47:19.578Z,57.48
2022-08-03T05:49:46.614Z,56.52
2022-08-03T05:52:15.158Z,55.63
2022-08-03T05:55:27.609Z,54.70
2022-08-03T05:57:56.710Z,53.17
2022-08-03T06:00:23.783Z,52.44
2022-08-03T06:02:58.657Z,51.28
2022-08-03T06:05:27.906Z,50.09
2022-08-03T06:07:54.746Z,48.94
2022-08-03T06:17:10.689Z,48.21
2022-08-03T06:19:10.300Z,46.22
2022-08-03T06:21:40.545Z,45.62
2022-08-03T06:24:08.506Z,45.34
2022-08-03T06:39:30.520Z,41.35
2022-08-03T06:42:22.626Z,40.61
2022-08-03T06:45:23.308Z,39.68
2022-08-03T06:48:11.914Z,39.54
2022-08-03T06:50:44.083Z,39.67
2022-08-03T06:53:15.615Z,39.13
2022-08-03T06:56:00.782Z,38.60
2022-08-03T06:58:28.389Z,38.50
2022-08-03T07:01:04.540Z,38.46
2022-08-03T07:03:52.164Z,38.35
2022-08-03T07:06:23.389Z,38.03
2022-08-03T07:08:53.671Z,37.53
2022-08-03T07:11:22.576Z,37.16
2022-08-03T07:13:49.618Z,36.73
2022-08-03T07:16:19.686Z,36.63
2022-08-03T07:18:51.971Z,35.96
2022-08-03T07:21:21.905Z,35.35
2022-08-03T07:23:51.610Z,35.38
2022-08-03T07:26:21.258Z,35.53
2022-08-03T07:28:48.208Z,35.32
2022-08-03T07:31:15.161Z,35.28
2022-08-03T07:33:42.443Z,35.04
2022-08-03T07:36:15.069Z,34.94
2022-08-03T07:38:42.255Z,34.63
2022-08-03T07:41:12.402Z,34.59
2022-08-03T07:43:41.939Z,34.27
2022-08-03T07:46:09.693Z,34.22
2022-08-03T07:48:39.220Z,33.67
2022-08-03T07:51:06.434Z,33.31
2022-08-03T07:53:37.846Z,33.27
2022-08-03T07:56:22.344Z,32.68
2022-08-03T07:58:50.279Z,32.68
2022-08-03T08:01:19.140Z,32.52
2022-08-03T08:03:52.312Z,31.22
2022-08-03T08:06:23.627Z,30.28
2022-08-03T08:08:51.172Z,29.84
2022-08-03T08:11:21.941Z,29.91
2022-08-03T08:13:50.380Z,29.18
2022-08-03T08:16:17.423Z,29.14
2022-08-03T08:18:44.457Z,28.72
2022-08-03T08:21:11.594Z,28.20
2022-08-03T08:23:43.453Z,28.10
2022-08-03T08:26:12.036Z,28.30
2022-08-03T08:28:39.194Z,28.44
2022-08-03T08:31:06.395Z,28.01
2022-08-03T08:36:26.337Z,27.23
2022-08-03T08:38:53.722Z,26.52
2022-08-03T08:41:20.690Z,26.87
2022-08-03T08:43:58.119Z,27.01
2022-08-03T08:46:31.826Z,27.55
2022-08-03T08:49:04.994Z,27.34
2022-08-03T08:51:51.059Z,27.68
2022-08-03T08:54:46.702Z,27.79
2022-08-03T08:57:41.957Z,28.53
2022-08-03T09:00:13.845Z,29.58
2022-08-03T09:02:45.258Z,29.97
2022-08-03T09:05:15.030Z,30.18
2022-08-03T09:07:43.268Z,30.31
2022-08-03T09:10:13.738Z,30.82
2022-08-03T09:12:46.637Z,30.71
2022-08-03T09:15:25.800Z,30.87
2022-08-03T09:17:55.857Z,30.12
2022-08-03T09:20:25.216Z,29.50
2022-08-03T09:23:01.653Z,29.96
2022-08-03T09:25:30.097Z,29.85
2022-08-03T09:28:59.823Z,29.47
2022-08-03T09:31:07.610Z,29.68
2022-08-03T09:33:48.417Z,29.94
2022-08-03T09:36:39.232Z,29.56
2022-08-03T09:39:14.998Z,29.72
2022-08-03T09:42:03.692Z,29.56
2022-08-03T09:44:40.522Z,29.76
2022-08-03T09:47:14.373Z,29.71
2022-08-03T09:50:02.349Z,29.58
2022-08-03T09:52:38.976Z,30.42
2022-08-03T09:56:32.729Z,30.26
2022-08-03T09:58:11.071Z,30.28
2022-08-03T10:01:24.272Z,30.30
2022-08-03T10:04:04.295Z,30.22
2022-08-03T10:06:35.186Z,30.19
2022-08-03T10:09:10.969Z,29.89
2022-08-03T10:11:41.932Z,29.77
2022-08-03T10:14:18.463Z,29.77
2022-08-03T10:16:47.141Z,29.53
2022-08-03T10:19:17.703Z,29.46
2022-08-03T10:21:53.407Z,29.26
2022-08-03T10:24:26.153Z,29.21
2022-08-03T10:27:17.618Z,28.99
2022-08-03T10:29:46.972Z,28.60
2022-08-03T10:32:21.167Z,28.36
2022-08-03T10:34:51.633Z,29.16
2022-08-03T10:37:33.034Z,28.93
2022-08-03T10:40:03.085Z,28.64
2022-08-03T10:42:31.522Z,28.38
2022-08-03T10:45:07.362Z,28.54
2022-08-03T10:47:35.599Z,28.77
2022-08-03T10:50:06.932Z,28.59
2022-08-03T10:52:38.168Z,28.86
2022-08-03T10:56:04.102Z,27.77
2022-08-03T10:58:56.892Z,27.92
2022-08-03T11:01:59.252Z,28.05
2022-08-03T11:04:31.228Z,28.15
2022-08-03T11:07:17.298Z,28.53
2022-08-03T11:09:49.720Z,29.51
2022-08-03T11:12:30.077Z,29.21
2022-08-03T11:15:05.811Z,29.74
2022-08-03T11:18:11.106Z,30.26
2022-08-03T11:20:49.751Z,30.74
2022-08-03T11:23:19.663Z,30.86
2022-08-03T11:26:17.460Z,31.31
2022-08-03T11:28:48.953Z,31.50
2022-08-03T11:31:46.886Z,30.70
2022-08-03T11:34:11.348Z,29.41
2022-08-03T11:37:16.381Z,29.08
2022-08-03T11:39:47.152Z,28.60
2022-08-03T11:42:27.141Z,28.27
2022-08-03T11:44:58.765Z,28.07
2022-08-03T11:47:28.779Z,28.15
2022-08-03T11:50:06.224Z,27.86
2022-08-03T11:52:41.301Z,27.50
2022-08-03T11:55:11.749Z,27.59
2022-08-03T11:59:01.690Z,27.56
2022-08-03T12:00:31.820Z,26.98
2022-08-03T12:03:14.131Z,27.30
2022-08-03T12:05:52.859Z,27.87
2022-08-03T12:08:25.989Z,28.44
2022-08-03T12:10:54.857Z,28.37
2022-08-03T12:14:45.161Z,28.61
2022-08-03T12:16:22.620Z,27.95
2022-08-03T12:19:01.479Z,27.47
2022-08-03T12:21:29.949Z,27.06
2022-08-03T12:24:01.969Z,27.12
2022-08-03T12:26:30.340Z,27.12
2022-08-03T12:29:03.042Z,27.50
2022-08-03T12:31:31.459Z,26.97
2022-08-03T12:34:05.005Z,26.92
2022-08-03T12:36:38.173Z,26.74
2022-08-03T12:39:12.163Z,26.97
2022-08-03T12:41:40.652Z,27.45
2022-08-03T12:44:10.768Z,27.63
2022-08-03T12:46:47.185Z,27.54
2022-08-03T12:49:18.255Z,28.10
2022-08-03T12:51:54.561Z,28.57
2022-08-03T12:54:26.493Z,28.83
2022-08-03T12:57:02.184Z,29.11
2022-08-03T12:59:41.193Z,28.96
2022-08-03T13:02:27.098Z,28.62
2022-08-03T13:04:56.266Z,28.24
2022-08-03T13:07:26.194Z,28.22
2022-08-03T13:09:55.550Z,28.36
2022-08-03T13:12:27.421Z,28.28
2022-08-03T13:14:59.485Z,28.14
2022-08-03T13:17:27.421Z,28.33
2022-08-03T13:19:56.889Z,28.36
2022-08-03T13:22:32.652Z,28.05
2022-08-03T13:25:03.543Z,27.67
2022-08-03T13:28:03.863Z,27.62
2022-08-03T13:30:30.451Z,27.23
2022-08-03T13:32:59.656Z,27.30
2022-08-03T13:35:26.603Z,26.59
2022-08-03T13:37:53.573Z,27.02
2022-08-03T13:40:30.122Z,26.77
2022-08-03T13:43:01.220Z,27.39
2022-08-03T13:45:28.750Z,27.09
2022-08-03T13:47:55.675Z,26.72
2022-08-03T13:50:22.543Z,26.91
2022-08-03T13:52:49.520Z,26.59
2022-08-03T13:55:16.481Z,26.26
2022-08-03T13:58:03.905Z,26.14
2022-08-03T14:00:36.157Z,26.12
2022-08-03T14:03:14.454Z,25.84
2022-08-03T14:05:47.664Z,26.35
2022-08-03T14:08:21.856Z,26.56
2022-08-03T14:10:48.599Z,26.68
2022-08-03T14:13:17.509Z,26.87
2022-08-03T14:15:50.988Z,26.65
2022-08-03T14:18:27.880Z,26.31
2022-08-03T14:21:06.332Z,26.40
2022-08-03T14:23:43.074Z,26.95
2022-08-03T14:26:14.021Z,26.90
2022-08-03T14:28:41.158Z,26.58
2022-08-03T14:31:08.082Z,26.85
2022-08-03T14:33:42.512Z,26.68
2022-08-03T14:36:09.424Z,26.64
2022-08-03T14:38:36.300Z,26.89
2022-08-03T14:41:03.268Z,26.51
2022-08-03T14:43:34.226Z,26.48
2022-08-03T14:46:01.455Z,26.69
2022-08-03T14:50:33.225Z,26.74
2022-08-03T14:51:18.956Z,26.83
2022-08-03T14:53:46.269Z,27.24
2022-08-03T14:56:15.844Z,27.05
2022-08-03T14:58:44.931Z,27.04
2022-08-03T15:02:02.604Z,26.67
2022-08-03T15:04:01.465Z,26.57
2022-08-03T15:06:30.898Z,26.68
2022-08-03T15:09:21.661Z,26.84
2022-08-03T15:11:45.512Z,26.88
2022-08-03T15:14:15.520Z,27.16
2022-08-03T15:16:42.718Z,26.71
2022-08-03T15:20:00.342Z,26.78
2022-08-03T15:21:57.321Z,26.42
2022-08-03T15:24:28.331Z,26.36
2022-08-03T15:26:55.452Z,26.79
2022-08-03T15:30:05.083Z,26.59
2022-08-03T15:32:10.708Z,26.74
2022-08-03T15:34:37.569Z,26.82
2022-08-03T15:37:26.823Z,26.93
2022-08-03T15:40:06.624Z,26.68
2022-08-03T15:42:37.737Z,27.12
2022-08-03T15:45:06.024Z,27.09
2022-08-03T15:47:32.946Z,27.31
2022-08-03T15:49:59.839Z,27.27
2022-08-03T15:52:33.270Z,27.57
2022-08-03T15:55:00.724Z,27.80
2022-08-03T15:59:03.550Z,27.85
2022-08-03T16:00:33.545Z,27.77
2022-08-03T16:03:01.682Z,28.10
2022-08-03T16:05:29.004Z,28.44
2022-08-03T16:08:03.131Z,28.46
2022-08-03T16:10:34.718Z,28.39
2022-08-03T16:13:01.846Z,28.47
2022-08-03T16:15:28.870Z,28.38
2022-08-03T16:17:55.964Z,28.25
2022-08-03T16:20:30.913Z,28.37
2022-08-03T16:23:10.746Z,28.49
2022-08-03T16:25:40.341Z,28.52
2022-08-03T16:28:13.770Z,28.62
2022-08-03T16:30:44.685Z,28.81
2022-08-03T16:33:43.921Z,28.83
2022-08-03T16:36:10.937Z,29.29
2022-08-03T16:38:38.576Z,29.26
2022-08-03T16:41:17.431Z,29.26
2022-08-03T16:43:44.894Z,29.23
2022-08-03T16:46:12.509Z,29.56
2022-08-03T16:48:42.412Z,29.54
2022-08-03T16:51:09.555Z,29.51
2022-08-03T16:54:07.888Z,29.52
2022-08-03T16:56:26.984Z,29.66
2022-08-03T16:58:53.862Z,29.67
2022-08-03T17:01:24.229Z,29.61
2022-08-03T17:04:03.196Z,29.35
2022-08-03T17:06:35.847Z,29.46
2022-08-03T17:09:18.619Z,29.49
2022-08-03T17:11:48.751Z,29.47
2022-08-03T17:14:17.054Z,29.72
2022-08-03T17:16:53.013Z,29.90
2022-08-03T17:19:23.847Z,29.91
2022-08-03T17:22:10.702Z,30.21
2022-08-03T17:25:07.577Z,30.44
2022-08-03T17:28:50.673Z,30.81
2022-08-03T17:30:44.327Z,30.70
2022-08-03T17:33:23.204Z,30.65
2022-08-03T17:35:54.865Z,30.90
2022-08-03T17:38:28.881Z,30.92
2022-08-03T17:40:59.758Z,31.36
2022-08-03T17:44:13.580Z,31.42
2022-08-03T17:46:24.987Z,31.85
2022-08-03T17:48:53.623Z,31.93
2022-08-03T17:51:29.947Z,33.01
2022-08-03T17:55:56.440Z,33.97
2022-08-03T17:58:01.578Z,34.35
2022-08-03T18:00:51.582Z,34.66
2022-08-03T18:03:58.041Z,34.74
2022-08-03T18:06:55.612Z,34.33
2022-08-03T18:10:03.390Z,34.31
2022-08-03T18:12:26.551Z,35.48
2022-08-03T18:15:01.155Z,36.81
2022-08-03T18:17:55.720Z,37.51
2022-08-03T18:20:34.627Z,38.00
2022-08-03T18:23:25.443Z,38.52
2022-08-03T18:26:11.874Z,38.99
2022-08-03T18:28:40.455Z,39.36
2022-08-03T18:31:11.557Z,39.70
2022-08-03T18:34:32.454Z,39.95
2022-08-03T18:36:30.507Z,40.04
2022-08-03T18:39:02.771Z,40.49
2022-08-03T18:41:35.113Z,40.78
2022-08-03T18:44:07.027Z,40.94
2022-08-03T18:47:15.933Z,41.31
2022-08-03T18:49:58.710Z,41.68
2022-08-03T18:53:15.598Z,42.01
2022-08-03T18:56:04.797Z,42.20
2022-08-03T18:59:02.316Z,42.47
2022-08-03T19:02:00.132Z,42.47
2022-08-03T19:04:34.030Z,42.62
2022-08-03T19:07:08.036Z,43.11
2022-08-03T19:09:35.407Z,43.14
2022-08-03T19:12:30.677Z,43.24
2022-08-03T19:15:12.747Z,43.41
2022-08-03T19:17:53.477Z,43.76
2022-08-03T19:20:23.007Z,43.95
2022-08-03T19:22:54.357Z,44.12
2022-08-03T19:25:34.356Z,44.21
2022-08-03T19:28:08.236Z,44.08
2022-08-03T19:30:39.654Z,44.08
2022-08-03T19:33:14.054Z,44.00
2022-08-03T19:35:51.634Z,44.24
2022-08-03T19:38:28.971Z,44.58
2022-08-03T19:41:03.552Z,44.35
2022-08-03T19:43:59.111Z,44.26
2022-08-03T19:46:30.300Z,43.79
2022-08-03T19:49:10.584Z,43.02
2022-08-03T19:52:01.163Z,43.25
2022-08-03T19:54:54.202Z,42.51
2022-08-03T19:57:26.935Z,41.85
2022-08-03T19:59:58.263Z,42.02
2022-08-03T20:02:27.087Z,41.62
2022-08-03T20:04:56.659Z,41.67
2022-08-03T20:07:32.558Z,42.11
2022-08-03T20:10:02.180Z,41.80
2022-08-03T20:12:38.575Z,41.78
2022-08-03T20:15:07.462Z,41.91
2022-08-03T20:17:55.945Z,41.69
2022-08-03T20:20:34.033Z,41.33
2022-08-03T20:23:07.208Z,41.09
2022-08-03T20:25:58.516Z,40.95
2022-08-03T20:28:31.925Z,40.69
2022-08-03T20:30:59.935Z,40.66
2022-08-03T20:33:27.911Z,40.61
2022-08-03T20:36:15.767Z,40.56
2022-08-03T20:38:48.438Z,40.49
2022-08-03T20:41:18.978Z,40.39
2022-08-03T20:43:47.969Z,40.56
2022-08-03T20:46:28.381Z,40.57
2022-08-03T20:48:58.805Z,40.58
2022-08-03T20:51:49.141Z,40.67
2022-08-03T20:54:29.389Z,40.66
2022-08-03T20:56:58.815Z,40.89
2022-08-03T20:59:38.509Z,40.90
2022-08-03T21:02:19.389Z,40.97
2022-08-03T21:04:55.715Z,41.08
2022-08-03T21:08:04.113Z,41.30
2022-08-03T21:10:16.673Z,41.34
2022-08-03T21:16:12.053Z,41.79
2022-08-03T21:18:45.151Z,41.99
2022-08-03T21:21:15.221Z,42.05
2022-08-03T21:23:48.940Z,42.32
2022-08-03T21:26:20.698Z,42.23
2022-08-03T21:28:49.185Z,42.30
2022-08-03T21:31:25.378Z,42.44
2022-08-03T21:33:59.885Z,42.50
2022-08-03T21:36:29.163Z,42.66
2022-08-03T21:39:01.085Z,42.93
2022-08-03T21:41:31.155Z,43.11
2022-08-03T21:43:59.509Z,43.26
2022-08-03T21:46:37.898Z,43.41
2022-08-03T21:50:05.167Z,43.42
2022-08-03T21:52:04.126Z,43.64
2022-08-03T21:54:37.274Z,43.72
2022-08-03T21:57:08.382Z,43.86
2022-08-03T21:59:39.863Z,44.20
2022-08-03T22:02:22.741Z,44.42
2022-08-03T22:04:55.476Z,44.48
2022-08-03T22:07:27.513Z,44.76
2022-08-03T22:10:09.658Z,44.94
2022-08-03T22:12:41.041Z,45.03
2022-08-03T22:15:17.527Z,45.07
2022-08-03T22:18:22.720Z,45.60
2022-08-03T22:20:50.970Z,45.70
2022-08-03T22:23:22.370Z,45.83
2022-08-03T22:25:52.866Z,45.84
2022-08-03T22:28:21.960Z,45.87
2022-08-03T22:30:49.131Z,46.14
2022-08-03T22:33:16.364Z,46.15
2022-08-03T22:35:48.541Z,46.34
2022-08-03T22:38:17.584Z,46.35
2022-08-03T22:40:48.213Z,46.52
2022-08-03T22:43:15.301Z,46.49
2022-08-03T22:46:10.172Z,46.45
2022-08-03T22:48:35.266Z,46.49
2022-08-03T22:51:10.484Z,46.71
2022-08-03T22:53:38.818Z,46.64
2022-08-03T22:56:06.308Z,46.81
2022-08-03T22:58:33.013Z,46.79
2022-08-03T23:01:08.744Z,46.57
2022-08-03T23:04:00.175Z,46.68
2022-08-03T23:06:31.825Z,46.74
2022-08-03T23:09:05.760Z,46.81
2022-08-03T23:11:37.692Z,46.60
2022-08-03T23:14:17.524Z,46.61
2022-08-03T23:16:50.058Z,46.64
2022-08-03T23:19:25.356Z,46.60
2022-08-03T23:22:02.513Z,46.46
2022-08-03T23:24:35.425Z,46.60
2022-08-03T23:27:09.734Z,46.52
2022-08-03T23:29:42.465Z,46.54
2022-08-03T23:32:12.327Z,46.41
2022-08-03T23:34:58.987Z,46.47
2022-08-03T23:37:26.286Z,46.53
2022-08-03T23:39:56.540Z,46.44
2022-08-03T23:42:23.350Z,46.39
2022-08-03T23:44:54.313Z,46.25
2022-08-03T23:47:21.479Z,46.31
2022-08-03T23:49:49.339Z,46.37
2022-08-03T23:52:30.158Z,46.35
2022-08-03T23:55:02.459Z,46.48
2022-08-03T23:57:50.688Z,46.47
